Port Hawkesbury, Canada
Current Conditions -  °F | °C
As of 5:48 PM on Friday 19 Dec 2014 (Local Time) from CYPD Reporting Station
Light Snow Light Snow  
Wind Chill: 23°   Ceiling: 1200
Heat Index: 32°   Visibility: 2mi
Dew Point: 30°   Wind: 12mph
Humidity: 93%   Direction: 310°NW
Pressure: 29.7"   Gusts: 22mph
Location:  45.62°N, 61.35°W
Report Text: CYPD 192148Z AUTO 31010G19KT 2SM -SN SCT007 OVC012 M00/M01 A2970 RMK SLP063
Loading
Personal Weather Stations






























Interactive Weather Map New forecast layout! Learn more

10-Day Weather Forecast

Advertisements
Track Severe Weather on mobile